Latest Coastal Weather Observations for East Sale Airport

IDV60701

Issued at 1:02 am EST Sunday 26 June 2022 (issued every 10 minutes, with the page automatically refreshed every 10 minutes)

About coastal observations | Map of coastal stations | Coastal observations for VIC | Marine services | Other Formats
Station Details ID: 085314 Name: EAST SALE AIRPORT Lat: -38.10 Lon: 147.14 Height: 5.3 m
Data from the previous 72 hours. | See also: Recent months at East Sale Airport
Date/Time
EST
Wind Sea
Height
m
Swell Vis
km
Cloud Weather Temp
°C
Press
MSL
hPa
Rain since
9am
mm
Dir  Spd
kts
Gust
kts
Height
m
Period
s
Dir
26/01:00am N 7 11 - - - - 10 Cloudy - 11.3 1019.4 0.0
26/12:30am N 5 7 - - - - 10 Cloudy - 10.7 1019.5 0.0
26/12:00am N 9 11 - - - - 10 Cloudy - 10.8 1019.5 0.0
 
Date/Time
EST
Wind Sea
Height
m
Swell Vis
km
Cloud Weather Temp
°C
Press
MSL
hPa
Rain since
9am
mm
Dir  Spd
kts
Gust
kts
Height
m
Period
s
Dir
25/11:30pm NNW 10 13 - - - - 10 Cloudy - 11.1 1019.7 0.0
25/11:00pm N 11 13 - - - - 10 Cloudy - 10.9 1019.4 0.0
25/10:30pm NNW 10 13 - - - - 10 Partly cloudy - 10.4 1019.3 0.0
25/10:00pm NW 13 16 - - - - 10 - - 11.3 1019.3 0.0
25/09:30pm NW 17 21 - - - - 10 - - 12.0 1019.2 0.0
25/09:00pm NW 12 16 - - - - 10 - - 11.5 1019.2 0.0
25/08:30pm NNW 13 17 - - - - 10 - - 11.3 1019.3 0.0
25/08:00pm NNW 13 15 - - - - 10 - - 11.2 1019.1 0.0
25/07:30pm NNW 10 13 - - - - 10 - - 10.7 1019.0 0.0
25/07:00pm NNW 8 10 - - - - 10 - - 9.8 1019.0 0.0
25/06:30pm NNW 10 12 - - - - 10 - - 11.4 1019.0 0.0
25/06:00pm NNW 11 14 - - - - 10 - - 11.7 1018.7 0.0
25/05:30pm NNW 12 15 - - - - 10 - - 11.9 1018.4 0.0
25/05:00pm NNW 11 15 - - - - 10 - - 12.3 1018.4 0.0
25/04:30pm NNW 11 15 - - - - 10 - - 13.2 1018.3 0.0
25/04:00pm NW 12 16 - - - - 10 - - 14.5 1018.2 0.0
25/03:30pm NW 14 20 - - - - 10 - - 15.3 1018.0 0.0
25/03:00pm NW 14 22 - - - - 10 - - 15.7 1017.7 0.0
25/02:30pm NW 16 24 - - - - 10 - - 16.1 1017.6 0.0
25/02:00pm NW 15 23 - - - - 10 Partly cloudy - 16.4 1017.6 0.0
25/01:30pm NW 17 23 - - - - 10 Partly cloudy - 16.2 1017.7 0.0
25/01:00pm NW 15 21 - - - - 10 Partly cloudy - 16.1 1017.8 0.0
25/12:30pm NW 17 23 - - - - 10 Partly cloudy - 16.0 1017.8 0.0
25/12:00pm NW 17 24 - - - - 10 Partly cloudy - 15.9 1018.0 0.0
25/11:30am NW 16 23 - - - - 10 Partly cloudy - 15.6 1018.5 0.0
25/11:17am NW 16 26 - - - - 10 - - 15.1 1018.4 0.0
25/11:00am NW 13 19 - - - - 10 - - 15.3 1018.8 0.0
25/10:30am NNW 13 17 - - - - 10 - - 14.3 1018.8 0.0
25/10:00am NW 10 13 - - - - 10 Partly cloudy - 13.9 1018.9 0.0
25/09:30am NW 8 12 - - - - 10 Cloudy - 12.9 1018.4 0.0
25/09:00am WNW 1 6 - - - - 10 Cloudy - 8.5 1018.3 0.2
25/08:30am N 6 8 - - - - 10 Partly cloudy - 5.9 1018.2 0.2
25/08:00am N 6 7 - - - - 10 Partly cloudy - 3.7 1018.1 0.2
25/07:30am N 5 6 - - - - 10 Partly cloudy - 2.7 1018.0 0.2
25/07:00am NNW 4 5 - - - - 10 Partly cloudy - 3.4 1017.9 0.2
25/06:30am N 6 7 - - - - 10 - - 4.1 1017.3 0.0
25/06:00am N 4 5 - - - - 10 Mostly clear - 5.2 1017.2 0.0
25/05:30am N 4 8 - - - - 10 Partly cloudy - 4.7 1017.2 0.0
25/05:00am WSW 2 3 - - - - 10 Cloudy - 6.1 1016.8 0.0
25/04:30am WSW 2 6 - - - - 10 Cloudy - 6.7 1016.5 0.0
25/04:00am CALM 0 0 - - - - 10 Cloudy - 6.2 1016.4 0.0
25/03:30am NNW 1 4 - - - - 10 Cloudy - 6.5 1016.5 0.0
25/03:00am W 4 6 - - - - 10 Mostly cloudy - 6.7 1016.5 0.0
25/02:30am NW 4 5 - - - - 10 Cloudy - 6.9 1016.5 0.0
25/02:00am NNW 5 5 - - - - 10 Cloudy - 5.9 1016.5 0.0
25/01:30am NNW 6 8 - - - - 10 Cloudy - 5.5 1016.3 0.0
25/01:00am N 3 4 - - - - 10 Partly cloudy - 5.2 1016.5 0.0
25/12:30am N 2 4 - - - - 10 Partly cloudy - 3.9 1016.8 0.0
25/12:00am NNE 3 5 - - - - 10 - - 4.4 1016.8 0.0
 
Date/Time
EST
Wind Sea
Height
m
Swell Vis
km
Cloud Weather Temp
°C
Press
MSL
hPa
Rain since
9am
mm
Dir  Spd
kts
Gust
kts
Height
m
Period
s
Dir
24/11:30pm NNE 3 5 - - - - 10 Partly cloudy - 4.3 1017.1 0.0
24/11:00pm NW 5 6 - - - - 10 - - 5.5 1017.0 0.0
24/10:30pm N 2 5 - - - - 10 - - 5.4 1016.9 0.0
24/10:00pm CALM 0 3 - - - - 10 - - 5.2 1016.7 0.0
24/09:30pm WNW 4 5 - - - - 10 - - 6.1 1016.6 0.0
24/09:00pm CALM 0 0 - - - - 10 - - 6.3 1016.5 0.0
24/08:30pm W 6 7 - - - - 10 - - 9.0 1016.4 0.0
24/08:00pm W 7 8 - - - - 10 - - 9.5 1016.3 0.0
24/07:30pm W 5 7 - - - - 10 Partly cloudy - 10.1 1016.1 0.0
24/07:00pm WNW 5 7 - - - - 10 Partly cloudy - 9.9 1015.7 0.0
24/06:30pm N 3 4 - - - - 10 - - 9.3 1015.2 0.0
24/06:00pm WSW 7 9 - - - - 10 - - 10.4 1014.9 0.0
24/05:30pm W 8 10 - - - - 10 - - 11.8 1014.7 0.0
24/05:00pm W 7 9 - - - - 10 Partly cloudy - 12.5 1014.5 0.0
24/04:30pm WNW 7 10 - - - - 10 Partly cloudy - 13.6 1014.2 0.0
24/04:00pm W 10 14 - - - - 10 Mostly clear - 14.3 1013.8 0.0
24/03:30pm W 14 21 - - - - 10 Mostly clear - 14.8 1013.6 0.0
24/03:07pm WSW 15 25 - - - - 10 Mostly clear - 15.2 1013.5 0.0
24/03:00pm WSW 15 21 - - - - 10 Mostly clear - 15.0 1013.4 0.0
24/02:30pm W 14 21 - - - - 10 Mostly clear - 15.2 1013.2 0.0
24/02:13pm W 16 27 - - - - 10 Mostly clear - 15.4 1012.9 0.0
24/02:00pm W 14 22 - - - - 10 Mostly clear - 15.2 1012.9 0.0
24/01:42pm W 15 25 - - - - 10 Mostly clear - 15.1 1012.9 0.0
24/01:30pm W 16 23 - - - - 10 Mostly clear - 15.0 1013.0 0.0
24/01:00pm W 16 26 - - - - 10 Mostly clear - 14.8 1013.1 0.0
24/12:56pm W 15 26 - - - - 10 Mostly clear - 14.8 1013.1 0.0
24/12:30pm W 13 19 - - - - 10 Mostly clear - 15.1 1013.2 0.0
24/12:00pm W 11 18 - - - - 10 Cloudy - 15.5 1013.1 0.0
24/11:30am W 8 12 - - - - 10 Mostly clear - 15.5 1013.3 0.0
24/11:00am WSW 8 13 - - - - 10 Partly cloudy - 13.6 1013.5 0.0
24/10:30am WNW 6 7 - - - - 10 Mostly clear - 14.0 1013.4 0.0
24/10:00am WSW 7 10 - - - - 10 Mostly clear - 12.6 1013.4 0.0
24/09:30am SW 6 8 - - - - 10 Mostly clear - 12.4 1013.0 0.0
24/09:00am W 7 8 - - - - 10 Cloudy Showers 13.3 1012.5 0.6
24/08:30am NW 6 8 - - - - 10 Mostly clear Showers 12.5 1012.3 0.6
24/08:00am WNW 8 11 - - - - 9 Mostly clear - 13.1 1012.3 0.4
24/07:30am WNW 9 12 - - - - 10 Mostly clear Showers 13.8 1012.2 0.0
24/07:00am NW 14 19 - - - - 10 Mostly clear - 14.9 1011.5 0.0
24/06:30am NW 12 15 - - - - 10 Partly cloudy - 15.1 1011.2 0.0
24/06:00am WNW 10 13 - - - - 10 Mostly cloudy - 15.0 1010.9 0.0
24/05:30am NW 14 18 - - - - 10 Partly cloudy - 14.8 1010.4 0.0
24/05:00am NW 10 15 - - - - 10 Partly cloudy - 14.7 1010.3 0.0
24/04:30am NW 13 18 - - - - 10 - - 15.2 1010.3 0.0
24/04:00am NW 14 19 - - - - 10 - - 15.2 1010.2 0.0
24/03:30am NNW 17 21 - - - - 10 - - 15.1 1009.9 0.0
24/03:01am NNW 15 25 - - - - 10 Partly cloudy - 15.7 1010.7 0.0
24/03:00am NNW 15 20 - - - - 10 Cloudy - 15.6 1010.7 0.0
24/02:30am NNW 15 21 - - - - 10 - - 15.1 1010.9 0.0
24/02:00am NNW 16 25 - - - - 10 - - 14.7 1010.8 0.0
24/01:30am NNW 17 23 - - - - 10 - - 14.8 1011.2 0.0
24/01:00am NNW 13 18 - - - - 10 - - 14.4 1011.8 0.0
24/12:30am N 9 14 - - - - 10 - - 12.9 1012.4 0.0
24/12:00am N 6 9 - - - - 10 Partly cloudy - 10.7 1013.2 0.0
 
Date/Time
EST
Wind Sea
Height
m
Swell Vis
km
Cloud Weather Temp
°C
Press
MSL
hPa
Rain since
9am
mm
Dir  Spd
kts
Gust
kts
Height
m
Period
s
Dir
23/11:30pm N 11 16 - - - - 10 - - 11.6 1013.4 0.0
23/11:00pm N 12 16 - - - - 10 - - 13.6 1013.4 0.0
23/10:30pm N 13 15 - - - - 10 - - 13.3 1013.7 0.0
23/10:00pm NNW 13 17 - - - - 10 - - 13.7 1014.0 0.0
23/09:30pm NNW 13 17 - - - - 10 - - 13.9 1014.4 0.0
23/09:00pm NNW 14 18 - - - - 10 Mostly clear - 14.2 1014.8 0.0
23/08:30pm NNW 15 20 - - - - 10 - - 14.4 1015.0 0.0
23/08:00pm NNW 13 16 - - - - 10 - - 14.1 1015.3 0.0
23/07:30pm NNW 12 16 - - - - 10 - - 14.0 1015.3 0.0
23/07:00pm NNW 12 15 - - - - 10 - - 13.9 1015.4 0.0
23/06:30pm NNW 7 10 - - - - 10 - - 11.6 1015.3 0.0
23/06:00pm N 9 11 - - - - 10 Mostly cloudy - 12.4 1015.3 0.0
23/05:30pm NNW 10 13 - - - - 10 - - 13.6 1015.6 0.0
23/05:00pm NNW 9 11 - - - - 10 - - 14.0 1015.8 0.0
23/04:30pm NNW 5 6 - - - - 10 - - 13.6 1016.1 0.0
23/04:00pm NNW 7 9 - - - - 10 - - 14.6 1016.2 0.0
23/03:30pm NW 9 11 - - - - 10 Mostly clear - 15.1 1016.3 0.0
23/03:00pm NW 9 12 - - - - 10 Mostly cloudy - 15.8 1016.4 0.0
23/02:30pm WNW 8 13 - - - - 10 - - 16.4 1016.6 0.0
23/02:00pm WNW 11 15 - - - - 10 - - 16.6 1016.7 0.0
23/01:30pm NW 10 14 - - - - 10 - - 17.0 1016.8 0.0
23/01:00pm WNW 5 8 - - - - 10 - - 16.2 1017.5 0.0
23/12:30pm SW 4 5 - - - - 10 - - 14.2 1018.2 0.0
23/12:00pm SSW 6 8 - - - - 10 Mostly cloudy - 14.4 1018.9 0.0
23/11:30am NW 4 6 - - - - 10 Mostly clear - 14.4 1019.6 0.0
23/11:00am NW 5 7 - - - - 10 Mostly clear - 14.0 1020.0 0.0
23/10:30am NNW 4 5 - - - - 10 Mostly clear - 12.4 1020.6 0.0
23/10:00am NW 2 4 - - - - 10 Mostly clear - 11.0 1020.9 0.0
23/09:30am WNW 1 3 - - - - 10 Mostly clear - 9.7 1021.0 0.0
23/09:00am N 5 6 - - - - 10 Partly cloudy - 8.7 1020.7 0.0
23/08:30am NNW 3 4 - - - - 10 Mostly clear - 7.6 1020.7 0.0
23/08:00am NNE 3 4 - - - - 10 Mostly clear - 5.8 1021.2 0.0
23/07:30am CALM 0 0 - - - - 10 Mostly clear - 4.5 1021.2 0.0
23/07:00am S 5 6 - - - - 10 Mostly clear - 3.8 1021.2 0.0
23/06:30am SW 2 4 - - - - 10 Partly cloudy - 4.5 1020.9 0.0
23/06:00am N 1 3 - - - - 10 Cloudy - 5.1 1020.7 0.0
23/05:30am N 7 8 - - - - 10 Partly cloudy - 5.0 1020.5 0.0
23/05:00am NNW 5 6 - - - - 10 Partly cloudy - 4.9 1020.8 0.0
23/04:30am NW 4 5 - - - - 10 Partly cloudy - 4.9 1021.2 0.0
23/04:00am WSW 3 5 - - - - 10 Partly cloudy - 4.5 1021.4 0.0
23/03:30am NNW 6 6 - - - - 10 Cloudy - 5.5 1021.4 0.0
23/03:00am NNW 6 7 - - - - 10 Cloudy - 5.5 1021.8 0.0
23/02:30am N 6 7 - - - - 10 Partly cloudy - 5.0 1022.2 0.0
23/02:00am NNW 6 7 - - - - 10 Partly cloudy - 4.7 1022.4 0.0
23/01:30am NW 5 6 - - - - 10 - - 6.0 1022.5 0.0

Other formats

Comma delimited format used in spreadsheet applications
http://www.bom.gov.au/fwo/IDV60701/IDV60701.95907.axf

JavaScript Object Notation format (JSON) in row-major order
http://www.bom.gov.au/fwo/IDV60701/IDV60701.95907.json

Data quality

Most of these data are generated automatically and are frequently updated. Quality checks on data are not normally performed. It is possible for incorrect values to appear. Refer to information at About Latest Weather Observations and please check the disclaimer before using these data.